PWSweather.com
Personal Weather Stations
Station Observations
WISCHPK61
Green Bay Schmitt Park, Green Bay, WI 54311

Green Bay Schmitt ParkGreen Bay, WI 54311

Lat: 44.514277, Lon: -87.935067

Elevation: 735

Station Type: Acu Rite Pro Weather Center model 02032C

http://greenbayweathercam.com

High Low Average
Temperature 48.7°F9.3°C 32.4°F0.2°C 37.9°F3.3°C
Dew Point 48.4°F9.1°C 29.2°F-1.6°C 35.2°F1.8°C
Winds 4.6 mph 7.4 kmh Calm Calm 1.0 mph S1.6 kmh S
Wind Gusts 9.2 mph14.8 kmh -- 2.0 mph3.2 kmh
Humidity 99% 69% 91%
Pressure 29.07 in984.4 mb 28.78 in974.6 mb -
Precipitation 0.75 in19.1 mm - -
Hour Temp Dew Point Humidity Winds Wind Gusts Pressure Precip Precip Rate Daily Precip Total
12:00 AM 32.4°F0.2°C 29.0°F-1.7°C 87% Calm Calm -- 28.94 in980.0 mb - 0.00 in0.0 mm 0.00 in0.0 mm
01:00 AM 32.5°F0.3°C 30.7°F-0.7°C 93% Calm Calm -- 28.97 in981.0 mb - 0.00 in0.0 mm 0.00 in0.0 mm
02:00 AM 32.4°F0.2°C 29.8°F-1.2°C 90% Calm Calm -- 28.88 in978.0 mb - 0.00 in0.0 mm 0.00 in0.0 mm
03:00 AM 32.7°F0.4°C 31.4°F-0.3°C 95% Calm Calm -- 28.85 in977.0 mb - 0.02 in0.5 mm 0.02 in0.5 mm
04:00 AM 33.1°F0.6°C 31.3°F-0.4°C 93% Calm Calm -- 28.81 in975.6 mb - 0.04 in1.0 mm 0.06 in1.5 mm
05:00 AM 33.4°F0.8°C 31.1°F-0.5°C 91% Calm Calm -- 28.81 in975.6 mb - 0.04 in1.0 mm 0.10 in2.5 mm
06:00 AM 34.7°F1.5°C 31.8°F-0.1°C 89% Calm Calm -- 28.78 in974.6 mb - 0.04 in1.0 mm 0.14 in3.6 mm
07:00 AM 35.4°F1.9°C 35.1°F1.7°C 99% Calm Calm -- 28.80 in975.3 mb - 0.11 in2.8 mm 0.25 in6.4 mm
08:00 AM 37.6°F3.1°C 37.1°F2.8°C 98% Calm Calm -- 28.78 in974.6 mb - 0.13 in3.3 mm 0.38 in9.7 mm
09:00 AM 42.3°F5.7°C 38.1°F3.4°C 85% 1.2 mph NE1.9 kmh NE 1.2 mph1.9 kmh 28.80 in975.3 mb - 0.16 in4.1 mm 0.54 in13.7 mm
10:00 AM 48.7°F9.3°C 48.4°F9.1°C 99% 4.6 mph SSE7.4 kmh SSE 9.2 mph14.8 kmh 28.81 in975.6 mb - 0.15 in3.8 mm 0.69 in17.5 mm
11:00 AM 44.0°F6.7°C 43.7°F6.5°C 99% 2.3 mph W3.7 kmh W 4.6 mph7.4 kmh 28.83 in976.3 mb - 0.06 in1.5 mm 0.75 in19.1 mm
12:00 PM 40.6°F4.8°C 40.3°F4.6°C 99% Calm Calm -- 28.85 in977.0 mb - 0.00 in0.0 mm 0.75 in19.1 mm
01:00 PM 42.9°F6.1°C 35.2°F1.8°C 74% 2.3 mph SSE3.7 kmh SSE 5.8 mph9.3 kmh 28.87 in977.7 mb - 0.00 in0.0 mm 0.75 in19.1 mm
02:00 PM 40.8°F4.9°C 40.5°F4.7°C 99% Calm Calm -- 28.89 in978.3 mb - 0.00 in0.0 mm 0.75 in19.1 mm
03:00 PM 39.7°F4.3°C 39.4°F4.1°C 99% Calm Calm -- 28.93 in979.7 mb - 0.00 in0.0 mm 0.75 in19.1 mm
04:00 PM 40.3°F4.6°C 34.6°F1.4°C 80% Calm Calm -- 28.94 in980.0 mb - 0.00 in0.0 mm 0.75 in19.1 mm
05:00 PM 39.2°F4.0°C 32.6°F0.3°C 77% 2.3 mph SE3.7 kmh SE 4.6 mph7.4 kmh 28.96 in980.7 mb - 0.00 in0.0 mm 0.75 in19.1 mm
06:00 PM 38.5°F3.6°C 29.2°F-1.6°C 69% Calm Calm 3.5 mph5.6 kmh 28.99 in981.7 mb - 0.00 in0.0 mm 0.75 in19.1 mm
07:00 PM 37.6°F3.1°C 31.0°F-0.6°C 77% 2.3 mph ESE3.7 kmh ESE 5.8 mph9.3 kmh 29.00 in982.1 mb - 0.00 in0.0 mm 0.75 in19.1 mm
08:00 PM 37.0°F2.8°C 36.7°F2.6°C 99% Calm Calm -- 29.02 in982.7 mb - 0.00 in0.0 mm 0.75 in19.1 mm
09:00 PM 36.7°F2.6°C 36.4°F2.4°C 99% 1.2 mph SW1.9 kmh SW 2.3 mph3.7 kmh 29.05 in983.7 mb - 0.00 in0.0 mm 0.75 in19.1 mm
10:00 PM 36.5°F2.5°C 29.3°F-1.5°C 75% 1.2 mph S1.9 kmh S 1.2 mph1.9 kmh 29.07 in984.4 mb - 0.00 in0.0 mm 0.75 in19.1 mm
11:00 PM 36.1°F2.3°C 35.8°F2.1°C 99% Calm Calm -- 29.07 in984.4 mb - 0.00 in0.0 mm 0.75 in19.1 mm